createdAt,value
2023-03-17T00:01:48.493Z,46.27
2023-03-17T00:06:57.264Z,48.10
2023-03-17T00:12:05.190Z,46.17
2023-03-17T00:17:15.008Z,46.07
2023-03-17T00:22:22.543Z,45.90
2023-03-17T00:27:30.910Z,45.85
2023-03-17T00:32:39.973Z,46.15
2023-03-17T00:37:49.038Z,45.70
2023-03-17T00:42:56.080Z,46.53
2023-03-17T00:48:04.766Z,46.10
2023-03-17T00:53:19.054Z,47.00
2023-03-17T00:58:34.100Z,46.60
2023-03-17T01:03:41.842Z,47.33
2023-03-17T01:08:49.275Z,47.00
2023-03-17T01:13:57.293Z,47.03
2023-03-17T01:19:05.330Z,47.23
2023-03-17T01:24:12.178Z,47.50
2023-03-17T01:29:19.775Z,47.67
2023-03-17T01:34:30.640Z,47.20
2023-03-17T01:39:40.759Z,47.15
2023-03-17T01:45:06.641Z,47.17
2023-03-17T01:50:14.429Z,47.57
2023-03-17T01:55:22.908Z,47.58
2023-03-17T02:00:31.301Z,47.47
2023-03-17T02:05:40.571Z,46.37
2023-03-17T02:10:51.763Z,48.57
2023-03-17T02:15:59.781Z,48.25
2023-03-17T02:21:31.594Z,47.80
2023-03-17T02:26:40.181Z,46.28
2023-03-17T02:31:47.586Z,47.20
2023-03-17T02:36:54.880Z,47.70
2023-03-17T02:42:02.147Z,45.97
2023-03-17T02:47:10.748Z,47.00
2023-03-17T02:52:18.182Z,46.97
2023-03-17T02:57:26.093Z,46.83
2023-03-17T03:02:33.663Z,47.20
2023-03-17T03:07:40.345Z,46.45
2023-03-17T03:12:49.215Z,46.27
2023-03-17T03:17:56.019Z,46.97
2023-03-17T03:23:04.442Z,47.80
2023-03-17T03:28:12.402Z,46.80
2023-03-17T03:33:19.602Z,46.80
2023-03-17T03:38:29.057Z,46.37
2023-03-17T03:43:36.402Z,47.03
2023-03-17T03:48:44.198Z,46.43
2023-03-17T03:53:51.337Z,46.50
2023-03-17T03:58:58.621Z,47.33
2023-03-17T04:04:05.723Z,46.67
2023-03-17T04:09:14.322Z,46.70
2023-03-17T04:14:22.684Z,46.60
2023-03-17T04:19:29.708Z,46.60
2023-03-17T04:24:37.397Z,47.00
2023-03-17T04:29:45.783Z,46.23
2023-03-17T04:34:52.865Z,46.50
2023-03-17T04:39:59.821Z,46.73
2023-03-17T04:45:10.426Z,46.97
2023-03-17T04:50:18.225Z,47.75
2023-03-17T04:55:24.726Z,46.93
2023-03-17T05:00:31.745Z,46.90
2023-03-17T05:05:38.679Z,46.80
2023-03-17T05:10:46.327Z,46.65
2023-03-17T05:15:55.945Z,45.90
2023-03-17T05:21:02.877Z,47.20
2023-03-17T05:26:09.566Z,46.77
2023-03-17T05:36:23.585Z,47.07
2023-03-17T05:41:30.498Z,46.55
2023-03-17T05:46:37.520Z,46.87
2023-03-17T05:51:44.350Z,47.50
2023-03-17T05:56:50.971Z,47.38
2023-03-17T06:01:57.934Z,47.58
2023-03-17T06:07:10.189Z,47.00
2023-03-17T06:12:18.281Z,47.13
2023-03-17T06:17:26.074Z,47.90
2023-03-17T06:22:34.569Z,47.40
2023-03-17T06:27:41.295Z,47.73
2023-03-17T06:32:48.499Z,49.50
2023-03-17T06:37:58.218Z,47.13
2023-03-17T06:43:05.556Z,48.23
2023-03-17T06:48:12.560Z,49.10
2023-03-17T06:53:19.557Z,48.07
2023-03-17T06:58:27.288Z,51.58
2023-03-17T07:03:35.779Z,47.50
2023-03-17T07:08:43.147Z,52.10
2023-03-17T07:13:51.136Z,47.60
2023-03-17T07:18:58.760Z,49.00
2023-03-17T07:24:05.419Z,49.90
2023-03-17T07:29:12.929Z,49.40
2023-03-17T07:34:23.722Z,51.53
2023-03-17T07:39:31.346Z,50.20
2023-03-17T07:44:40.080Z,50.27
2023-03-17T07:49:47.014Z,49.87
2023-03-17T07:54:54.189Z,49.60
2023-03-17T08:00:01.591Z,49.90
2023-03-17T08:05:10.483Z,50.07
2023-03-17T08:10:18.464Z,50.97
2023-03-17T08:15:25.297Z,50.63
2023-03-17T08:20:32.660Z,50.23
2023-03-17T08:25:39.629Z,50.97
2023-03-17T08:30:50.371Z,51.53
2023-03-17T08:35:59.025Z,51.77
2023-03-17T08:41:09.506Z,52.83
2023-03-17T08:46:27.297Z,50.50
2023-03-17T08:51:37.436Z,51.23
2023-03-17T08:56:44.342Z,52.53
2023-03-17T09:01:51.838Z,52.13
2023-03-17T09:07:03.643Z,53.50
2023-03-17T09:12:09.659Z,52.63
2023-03-17T09:17:16.462Z,53.37
2023-03-17T09:22:28.363Z,54.00
2023-03-17T09:27:35.970Z,53.33
2023-03-17T09:32:45.175Z,55.60
2023-03-17T09:37:52.559Z,53.50
2023-03-17T09:43:26.633Z,54.87
2023-03-17T09:49:01.692Z,54.53
2023-03-17T09:54:30.926Z,55.33
2023-03-17T09:59:44.366Z,54.13
2023-03-17T10:04:52.016Z,54.10
2023-03-17T10:10:09.390Z,53.67
2023-03-17T10:15:23.886Z,54.67
2023-03-17T10:20:34.861Z,54.60
2023-03-17T10:25:41.676Z,53.57
2023-03-17T10:30:48.531Z,54.73
2023-03-17T10:35:55.409Z,55.37
2023-03-17T10:41:10.317Z,54.60
2023-03-17T10:46:30.270Z,54.87
2023-03-17T10:51:42.024Z,54.10
2023-03-17T10:56:52.618Z,88.37
2023-03-17T11:02:06.451Z,55.57
2023-03-17T11:07:24.195Z,54.80
2023-03-17T11:12:38.852Z,55.45
2023-03-17T11:17:55.944Z,54.93
2023-03-17T11:23:28.959Z,55.37
2023-03-17T11:28:42.709Z,54.55
2023-03-17T11:34:06.303Z,54.87
2023-03-17T11:39:23.591Z,54.07
2023-03-17T11:44:56.956Z,54.18
2023-03-17T11:50:11.607Z,55.40
2023-03-17T11:55:50.280Z,55.23
2023-03-17T12:01:01.168Z,54.97
2023-03-17T12:06:15.744Z,53.93
2023-03-17T12:11:28.373Z,54.97
2023-03-17T12:16:55.927Z,55.45
2023-03-17T12:22:19.113Z,55.10
2023-03-17T12:27:37.253Z,54.56
2023-03-17T12:33:12.195Z,54.50
2023-03-17T12:38:42.369Z,55.70
2023-03-17T12:44:42.571Z,55.37
2023-03-17T12:50:12.742Z,54.97
2023-03-17T12:55:23.625Z,55.93
2023-03-17T13:00:35.222Z,57.07
2023-03-17T13:05:45.159Z,56.17
2023-03-17T13:10:52.341Z,55.33
2023-03-17T13:16:01.425Z,55.73
2023-03-17T13:21:12.648Z,55.33
2023-03-17T13:26:45.002Z,54.70
2023-03-17T13:31:51.999Z,55.60
2023-03-17T13:37:27.708Z,55.43
2023-03-17T13:43:04.633Z,54.63
2023-03-17T13:48:36.534Z,56.47
2023-03-17T13:53:51.196Z,55.90
2023-03-17T13:59:14.572Z,55.70
2023-03-17T14:04:28.023Z,54.83
2023-03-17T14:09:43.744Z,56.00
2023-03-17T14:15:17.961Z,56.13
2023-03-17T14:20:28.970Z,56.80
2023-03-17T14:25:39.442Z,56.67
2023-03-17T14:30:59.076Z,55.40
2023-03-17T14:36:14.141Z,56.00
2023-03-17T14:41:25.495Z,54.77
2023-03-17T14:46:41.296Z,57.13
2023-03-17T14:51:58.502Z,64.22
2023-03-17T15:02:38.580Z,56.40
2023-03-17T15:07:45.971Z,56.73
2023-03-17T15:13:05.011Z,55.63
2023-03-17T15:18:17.554Z,56.53
2023-03-17T15:23:27.143Z,54.10
2023-03-17T15:28:34.268Z,57.20
2023-03-17T15:33:43.035Z,55.98
2023-03-17T15:38:49.603Z,55.63
2023-03-17T15:43:57.026Z,56.00
2023-03-17T15:49:05.816Z,56.67
2023-03-17T15:54:16.015Z,54.93
2023-03-17T15:59:23.055Z,52.70
2023-03-17T16:04:30.474Z,54.20
2023-03-17T16:09:37.729Z,55.87
2023-03-17T16:14:44.833Z,54.15
2023-03-17T16:19:53.843Z,55.03
2023-03-17T16:25:03.016Z,55.00
2023-03-17T16:30:13.487Z,56.60
2023-03-17T16:35:23.502Z,58.60
2023-03-17T16:40:36.083Z,56.93
2023-03-17T16:45:43.043Z,55.60
2023-03-17T16:50:50.644Z,58.70
2023-03-17T17:01:08.060Z,40.80
2023-03-17T17:06:15.789Z,55.53
2023-03-17T17:11:23.902Z,55.48
2023-03-17T17:16:40.959Z,54.05
2023-03-17T17:21:48.499Z,54.80
2023-03-17T17:26:56.604Z,53.87
2023-03-17T17:32:04.734Z,53.67
2023-03-17T17:37:13.478Z,55.57
2023-03-17T17:42:21.390Z,53.13
2023-03-17T17:47:32.114Z,54.13
2023-03-17T17:52:39.966Z,54.40
2023-03-17T18:02:52.835Z,53.43
2023-03-17T18:08:02.568Z,54.70
2023-03-17T18:13:09.848Z,52.37
2023-03-17T18:18:17.747Z,54.13
2023-03-17T18:23:24.831Z,51.07
2023-03-17T18:28:34.196Z,53.10
2023-03-17T18:33:44.032Z,51.70
2023-03-17T18:38:51.566Z,52.97
2023-03-17T18:44:00.444Z,53.60
2023-03-17T18:49:09.245Z,55.23
2023-03-17T18:54:16.597Z,52.73
2023-03-17T18:59:23.914Z,54.00
2023-03-17T19:04:31.196Z,53.00
2023-03-17T19:09:40.512Z,51.15
2023-03-17T19:14:48.014Z,50.83
2023-03-17T19:19:55.122Z,54.30
2023-03-17T19:25:05.464Z,51.77
2023-03-17T19:30:13.795Z,52.53
2023-03-17T19:35:24.833Z,51.15
2023-03-17T19:40:35.235Z,52.13
2023-03-17T19:45:41.932Z,50.05
2023-03-17T19:50:52.265Z,50.73
2023-03-17T19:55:59.653Z,54.57
2023-03-17T20:01:09.617Z,49.83
2023-03-17T20:06:18.367Z,50.30
2023-03-17T20:11:28.740Z,51.38
2023-03-17T20:16:37.110Z,49.80
2023-03-17T20:21:44.506Z,51.63
2023-03-17T20:26:52.860Z,55.83
2023-03-17T20:32:01.573Z,52.30
2023-03-17T20:37:08.885Z,52.00
2023-03-17T20:42:15.663Z,53.03
2023-03-17T20:47:26.383Z,49.95
2023-03-17T20:52:33.584Z,52.30
2023-03-17T20:57:42.900Z,51.18
2023-03-17T21:02:50.822Z,50.43
2023-03-17T21:07:57.795Z,51.13
2023-03-17T21:13:04.717Z,50.20
2023-03-17T21:18:14.742Z,50.03
2023-03-17T21:23:23.984Z,50.33
2023-03-17T21:33:40.684Z,50.40
2023-03-17T21:38:49.552Z,50.07
2023-03-17T21:43:58.256Z,51.13
2023-03-17T21:49:05.787Z,51.13
2023-03-17T21:54:12.861Z,50.97
2023-03-17T21:59:21.776Z,51.08
2023-03-17T22:19:50.101Z,50.57
2023-03-17T22:24:57.762Z,50.07
2023-03-17T22:30:04.977Z,50.53
2023-03-17T22:35:12.201Z,50.73
2023-03-17T22:40:20.265Z,51.00
2023-03-17T22:45:28.098Z,50.63
2023-03-17T22:50:35.415Z,51.90
2023-03-17T22:55:42.342Z,55.52
2023-03-17T23:00:50.877Z,57.80
2023-03-17T23:06:00.487Z,51.40
2023-03-17T23:11:14.966Z,49.67
2023-03-17T23:16:23.361Z,50.33
2023-03-17T23:21:38.106Z,50.67
2023-03-17T23:26:45.705Z,49.53
2023-03-17T23:31:52.434Z,49.43
2023-03-17T23:36:59.800Z,53.17
2023-03-17T23:42:07.228Z,50.87
2023-03-17T23:47:15.539Z,50.40
2023-03-17T23:52:24.339Z,50.45
2023-03-17T23:57:31.903Z,50.13
